Terminal Aerodrome Forecast
Issued by NWS

Home | Current Version | Previous Version | Text Only | Print | Product List | Glossary On
Versions: 1 2 3 4 5 6 7 8 9 10 11 12
198
FTUS41 KCLE 241735
TAFFDY
TAF
KFDY 241735Z 2418/2518 20012KT P6SM VCSH SCT040 BKN120
     FM242100 22010KT 6SM -SHRA VCTS OVC040CB
      TEMPO 2422/2501 2SM -TSRA OVC015CB
     FM250100 22006KT P6SM OVC035
     FM250900 23006KT 3SM BR SCT012 OVC020
     FM251400 24010KT P6SM SCT020 BKN035=

USA.gov is the U.S. government's official web portal to all federal, state and local government web resources and services.